sensor_id;sensor_type;location;lat;lon;timestamp;P1;durP1;ratioP1;P2;durP2;ratioP2
26474;SDS011;14161;52.270;10.334;2023-04-03T00:01:15;2.13;;;0.90;;
26474;SDS011;14161;52.270;10.334;2023-04-03T00:03:41;3.20;;;1.10;;
26474;SDS011;14161;52.270;10.334;2023-04-03T00:06:06;3.28;;;1.10;;
26474;SDS011;14161;52.270;10.334;2023-04-03T00:08:33;1.52;;;0.80;;
26474;SDS011;14161;52.270;10.334;2023-04-03T00:11:00;3.22;;;1.02;;
26474;SDS011;14161;52.270;10.334;2023-04-03T00:13:26;3.03;;;0.80;;
26474;SDS011;14161;52.270;10.334;2023-04-03T00:15:51;1.98;;;0.88;;
26474;SDS011;14161;52.270;10.334;2023-04-03T00:18:17;1.50;;;0.60;;
26474;SDS011;14161;52.270;10.334;2023-04-03T00:20:43;2.05;;;0.88;;
26474;SDS011;14161;52.270;10.334;2023-04-03T00:23:09;3.38;;;0.98;;
26474;SDS011;14161;52.270;10.334;2023-04-03T00:25:39;3.08;;;0.93;;
26474;SDS011;14161;52.270;10.334;2023-04-03T00:28:05;1.83;;;0.70;;
26474;SDS011;14161;52.270;10.334;2023-04-03T00:30:30;2.85;;;1.00;;
26474;SDS011;14161;52.270;10.334;2023-04-03T00:32:56;1.98;;;0.60;;
26474;SDS011;14161;52.270;10.334;2023-04-03T00:35:22;3.28;;;0.80;;
26474;SDS011;14161;52.270;10.334;2023-04-03T00:37:48;4.18;;;0.88;;
26474;SDS011;14161;52.270;10.334;2023-04-03T00:40:16;3.10;;;0.77;;
26474;SDS011;14161;52.270;10.334;2023-04-03T00:42:45;2.17;;;0.60;;
26474;SDS011;14161;52.270;10.334;2023-04-03T00:45:49;1.47;;;0.50;;
26474;SDS011;14161;52.270;10.334;2023-04-03T00:48:09;2.97;;;0.70;;
26474;SDS011;14161;52.270;10.334;2023-04-03T00:50:38;1.55;;;0.90;;
26474;SDS011;14161;52.270;10.334;2023-04-03T00:53:05;1.58;;;0.50;;
26474;SDS011;14161;52.270;10.334;2023-04-03T00:55:32;1.15;;;0.73;;
26474;SDS011;14161;52.270;10.334;2023-04-03T00:58:00;1.75;;;0.80;;
26474;SDS011;14161;52.270;10.334;2023-04-03T01:00:26;2.50;;;0.88;;
26474;SDS011;14161;52.270;10.334;2023-04-03T01:02:52;2.33;;;0.93;;
26474;SDS011;14161;52.270;10.334;2023-04-03T01:05:18;3.15;;;0.80;;
26474;SDS011;14161;52.270;10.334;2023-04-03T01:07:44;1.80;;;0.75;;
26474;SDS011;14161;52.270;10.334;2023-04-03T01:10:11;3.47;;;0.90;;
26474;SDS011;14161;52.270;10.334;2023-04-03T01:12:40;3.08;;;0.70;;
26474;SDS011;14161;52.270;10.334;2023-04-03T01:15:12;1.35;;;0.68;;
26474;SDS011;14161;52.270;10.334;2023-04-03T01:17:44;2.53;;;1.00;;
26474;SDS011;14161;52.270;10.334;2023-04-03T01:25:40;1.15;;;0.60;;
26474;SDS011;14161;52.270;10.334;2023-04-03T01:28:09;5.28;;;1.00;;
26474;SDS011;14161;52.270;10.334;2023-04-03T01:30:43;4.07;;;0.75;;
26474;SDS011;14161;52.270;10.334;2023-04-03T01:33:12;1.55;;;0.68;;
26474;SDS011;14161;52.270;10.334;2023-04-03T01:35:37;1.48;;;0.77;;
26474;SDS011;14161;52.270;10.334;2023-04-03T01:38:03;2.25;;;0.93;;
26474;SDS011;14161;52.270;10.334;2023-04-03T01:40:29;4.45;;;1.20;;
26474;SDS011;14161;52.270;10.334;2023-04-03T01:42:54;1.60;;;0.88;;
26474;SDS011;14161;52.270;10.334;2023-04-03T01:45:20;1.05;;;0.50;;
26474;SDS011;14161;52.270;10.334;2023-04-03T01:47:45;1.95;;;0.70;;
26474;SDS011;14161;52.270;10.334;2023-04-03T01:50:11;2.03;;;0.90;;
26474;SDS011;14161;52.270;10.334;2023-04-03T01:52:37;2.47;;;0.82;;
26474;SDS011;14161;52.270;10.334;2023-04-03T01:55:02;1.35;;;0.50;;
26474;SDS011;14161;52.270;10.334;2023-04-03T01:57:28;2.00;;;0.80;;
26474;SDS011;14161;52.270;10.334;2023-04-03T01:59:53;2.38;;;0.70;;
26474;SDS011;14161;52.270;10.334;2023-04-03T02:02:19;3.08;;;0.90;;
26474;SDS011;14161;52.270;10.334;2023-04-03T02:04:45;2.78;;;0.88;;
26474;SDS011;14161;52.270;10.334;2023-04-03T02:07:11;2.15;;;0.88;;
26474;SDS011;14161;52.270;10.334;2023-04-03T02:09:36;2.13;;;0.63;;
26474;SDS011;14161;52.270;10.334;2023-04-03T02:12:02;1.70;;;0.73;;
26474;SDS011;14161;52.270;10.334;2023-04-03T02:14:28;2.65;;;0.82;;
26474;SDS011;14161;52.270;10.334;2023-04-03T02:16:54;2.72;;;0.65;;
26474;SDS011;14161;52.270;10.334;2023-04-03T02:19:21;2.28;;;0.60;;
26474;SDS011;14161;52.270;10.334;2023-04-03T02:21:47;3.28;;;0.70;;
26474;SDS011;14161;52.270;10.334;2023-04-03T02:24:13;3.80;;;0.93;;
26474;SDS011;14161;52.270;10.334;2023-04-03T02:26:39;5.25;;;1.00;;
26474;SDS011;14161;52.270;10.334;2023-04-03T02:29:04;1.63;;;0.70;;
26474;SDS011;14161;52.270;10.334;2023-04-03T02:31:30;1.55;;;0.75;;
26474;SDS011;14161;52.270;10.334;2023-04-03T02:33:58;3.13;;;0.90;;
26474;SDS011;14161;52.270;10.334;2023-04-03T02:36:24;1.55;;;0.75;;
26474;SDS011;14161;52.270;10.334;2023-04-03T02:38:54;2.78;;;0.90;;
26474;SDS011;14161;52.270;10.334;2023-04-03T02:41:19;2.08;;;0.70;;
26474;SDS011;14161;52.270;10.334;2023-04-03T02:43:46;2.97;;;0.60;;
26474;SDS011;14161;52.270;10.334;2023-04-03T02:46:12;2.05;;;0.75;;
26474;SDS011;14161;52.270;10.334;2023-04-03T02:48:40;2.00;;;0.70;;
26474;SDS011;14161;52.270;10.334;2023-04-03T02:51:05;2.72;;;0.60;;
26474;SDS011;14161;52.270;10.334;2023-04-03T02:53:31;2.53;;;0.70;;
26474;SDS011;14161;52.270;10.334;2023-04-03T02:55:58;2.35;;;0.52;;
26474;SDS011;14161;52.270;10.334;2023-04-03T02:58:24;2.75;;;0.80;;
26474;SDS011;14161;52.270;10.334;2023-04-03T03:00:52;4.05;;;0.63;;
26474;SDS011;14161;52.270;10.334;2023-04-03T03:03:17;1.33;;;0.52;;
26474;SDS011;14161;52.270;10.334;2023-04-03T03:05:43;2.95;;;0.70;;
26474;SDS011;14161;52.270;10.334;2023-04-03T03:08:08;2.50;;;0.50;;
26474;SDS011;14161;52.270;10.334;2023-04-03T03:10:33;2.13;;;0.80;;
26474;SDS011;14161;52.270;10.334;2023-04-03T03:13:00;2.78;;;0.63;;
26474;SDS011;14161;52.270;10.334;2023-04-03T03:15:27;7.95;;;1.83;;
26474;SDS011;14161;52.270;10.334;2023-04-03T03:17:53;3.10;;;1.10;;
26474;SDS011;14161;52.270;10.334;2023-04-03T03:20:19;3.30;;;0.60;;
26474;SDS011;14161;52.270;10.334;2023-04-03T03:22:46;2.85;;;0.70;;
26474;SDS011;14161;52.270;10.334;2023-04-03T03:25:11;4.20;;;0.88;;
26474;SDS011;14161;52.270;10.334;2023-04-03T03:27:36;3.00;;;0.80;;
26474;SDS011;14161;52.270;10.334;2023-04-03T03:30:03;2.00;;;0.70;;
26474;SDS011;14161;52.270;10.334;2023-04-03T03:32:29;1.83;;;0.90;;
26474;SDS011;14161;52.270;10.334;2023-04-03T03:34:54;2.72;;;0.88;;
26474;SDS011;14161;52.270;10.334;2023-04-03T03:37:20;3.00;;;0.70;;
26474;SDS011;14161;52.270;10.334;2023-04-03T03:39:46;2.17;;;1.10;;
26474;SDS011;14161;52.270;10.334;2023-04-03T03:42:11;2.08;;;0.60;;
26474;SDS011;14161;52.270;10.334;2023-04-03T03:44:37;2.70;;;0.80;;
26474;SDS011;14161;52.270;10.334;2023-04-03T03:47:03;1.48;;;0.70;;
26474;SDS011;14161;52.270;10.334;2023-04-03T03:49:31;2.92;;;1.10;;
26474;SDS011;14161;52.270;10.334;2023-04-03T03:51:56;2.35;;;0.85;;
26474;SDS011;14161;52.270;10.334;2023-04-03T03:54:22;2.50;;;0.63;;
26474;SDS011;14161;52.270;10.334;2023-04-03T03:56:48;2.42;;;0.85;;
26474;SDS011;14161;52.270;10.334;2023-04-03T03:59:13;3.78;;;0.93;;
26474;SDS011;14161;52.270;10.334;2023-04-03T04:01:40;2.55;;;0.82;;
26474;SDS011;14161;52.270;10.334;2023-04-03T04:04:06;2.97;;;0.80;;
26474;SDS011;14161;52.270;10.334;2023-04-03T04:06:32;3.67;;;1.02;;
26474;SDS011;14161;52.270;10.334;2023-04-03T04:09:01;4.55;;;1.20;;
26474;SDS011;14161;52.270;10.334;2023-04-03T04:11:28;2.20;;;1.00;;
26474;SDS011;14161;52.270;10.334;2023-04-03T04:13:54;3.75;;;1.20;;
26474;SDS011;14161;52.270;10.334;2023-04-03T04:16:24;2.78;;;0.70;;
26474;SDS011;14161;52.270;10.334;2023-04-03T04:18:50;3.55;;;0.90;;
26474;SDS011;14161;52.270;10.334;2023-04-03T04:21:16;2.00;;;0.85;;
26474;SDS011;14161;52.270;10.334;2023-04-03T04:23:42;1.80;;;0.80;;
26474;SDS011;14161;52.270;10.334;2023-04-03T04:26:08;4.97;;;1.10;;
26474;SDS011;14161;52.270;10.334;2023-04-03T04:28:36;3.67;;;1.20;;
26474;SDS011;14161;52.270;10.334;2023-04-03T04:31:03;1.67;;;0.85;;
26474;SDS011;14161;52.270;10.334;2023-04-03T04:33:32;3.42;;;0.98;;
26474;SDS011;14161;52.270;10.334;2023-04-03T04:35:59;2.95;;;1.00;;
26474;SDS011;14161;52.270;10.334;2023-04-03T04:38:25;2.80;;;1.10;;
26474;SDS011;14161;52.270;10.334;2023-04-03T04:40:52;1.63;;;0.93;;
26474;SDS011;14161;52.270;10.334;2023-04-03T04:43:18;2.30;;;0.82;;
26474;SDS011;14161;52.270;10.334;2023-04-03T04:45:46;2.50;;;0.93;;
26474;SDS011;14161;52.270;10.334;2023-04-03T04:48:12;2.05;;;0.60;;
26474;SDS011;14161;52.270;10.334;2023-04-03T04:50:38;3.05;;;1.25;;
26474;SDS011;14161;52.270;10.334;2023-04-03T04:53:03;4.88;;;1.70;;
26474;SDS011;14161;52.270;10.334;2023-04-03T04:55:29;2.35;;;1.42;;
26474;SDS011;14161;52.270;10.334;2023-04-03T04:57:55;4.75;;;1.52;;
26474;SDS011;14161;52.270;10.334;2023-04-03T05:00:21;2.95;;;1.33;;
26474;SDS011;14161;52.270;10.334;2023-04-03T05:02:47;7.63;;;1.40;;
26474;SDS011;14161;52.270;10.334;2023-04-03T05:05:12;2.70;;;0.95;;
26474;SDS011;14161;52.270;10.334;2023-04-03T05:07:38;4.35;;;1.48;;
26474;SDS011;14161;52.270;10.334;2023-04-03T05:10:04;3.40;;;1.02;;
26474;SDS011;14161;52.270;10.334;2023-04-03T05:12:31;2.63;;;1.02;;
26474;SDS011;14161;52.270;10.334;2023-04-03T05:14:59;3.88;;;1.00;;
26474;SDS011;14161;52.270;10.334;2023-04-03T05:17:27;1.92;;;1.17;;
26474;SDS011;14161;52.270;10.334;2023-04-03T05:19:54;3.75;;;1.40;;
26474;SDS011;14161;52.270;10.334;2023-04-03T05:22:21;3.70;;;1.30;;
26474;SDS011;14161;52.270;10.334;2023-04-03T05:24:48;2.45;;;1.45;;
26474;SDS011;14161;52.270;10.334;2023-04-03T05:27:15;6.03;;;1.48;;
26474;SDS011;14161;52.270;10.334;2023-04-03T05:29:45;5.68;;;1.73;;
26474;SDS011;14161;52.270;10.334;2023-04-03T05:32:15;3.65;;;1.42;;
26474;SDS011;14161;52.270;10.334;2023-04-03T05:34:42;4.22;;;1.73;;
26474;SDS011;14161;52.270;10.334;2023-04-03T05:37:08;4.82;;;1.58;;
26474;SDS011;14161;52.270;10.334;2023-04-03T05:39:33;3.97;;;1.33;;
26474;SDS011;14161;52.270;10.334;2023-04-03T05:42:01;3.65;;;1.67;;
26474;SDS011;14161;52.270;10.334;2023-04-03T05:44:27;4.68;;;1.85;;
26474;SDS011;14161;52.270;10.334;2023-04-03T05:46:57;3.83;;;1.65;;
26474;SDS011;14161;52.270;10.334;2023-04-03T05:49:23;5.70;;;2.30;;
26474;SDS011;14161;52.270;10.334;2023-04-03T05:51:49;3.72;;;1.40;;
26474;SDS011;14161;52.270;10.334;2023-04-03T05:54:24;2.88;;;1.52;;
26474;SDS011;14161;52.270;10.334;2023-04-03T05:56:57;4.40;;;1.60;;
26474;SDS011;14161;52.270;10.334;2023-04-03T05:59:24;3.08;;;1.20;;
26474;SDS011;14161;52.270;10.334;2023-04-03T06:01:52;4.85;;;1.67;;
26474;SDS011;14161;52.270;10.334;2023-04-03T06:04:18;6.50;;;1.70;;
26474;SDS011;14161;52.270;10.334;2023-04-03T06:06:45;3.08;;;1.23;;
26474;SDS011;14161;52.270;10.334;2023-04-03T06:09:13;3.28;;;1.25;;
26474;SDS011;14161;52.270;10.334;2023-04-03T06:11:39;3.75;;;1.70;;
26474;SDS011;14161;52.270;10.334;2023-04-03T06:14:05;2.90;;;1.40;;
26474;SDS011;14161;52.270;10.334;2023-04-03T06:16:31;3.55;;;1.70;;
26474;SDS011;14161;52.270;10.334;2023-04-03T06:18:58;4.78;;;1.67;;
26474;SDS011;14161;52.270;10.334;2023-04-03T06:21:23;4.88;;;1.38;;
26474;SDS011;14161;52.270;10.334;2023-04-03T06:23:49;3.70;;;1.50;;
26474;SDS011;14161;52.270;10.334;2023-04-03T06:26:16;4.72;;;1.75;;
26474;SDS011;14161;52.270;10.334;2023-04-03T06:28:42;2.38;;;1.30;;
26474;SDS011;14161;52.270;10.334;2023-04-03T06:31:07;4.15;;;1.30;;
26474;SDS011;14161;52.270;10.334;2023-04-03T06:33:33;4.32;;;1.80;;
26474;SDS011;14161;52.270;10.334;2023-04-03T06:35:59;3.03;;;1.40;;
26474;SDS011;14161;52.270;10.334;2023-04-03T06:38:25;3.38;;;1.30;;
26474;SDS011;14161;52.270;10.334;2023-04-03T06:40:51;4.20;;;1.40;;
26474;SDS011;14161;52.270;10.334;2023-04-03T06:43:17;2.60;;;1.30;;
26474;SDS011;14161;52.270;10.334;2023-04-03T06:45:42;4.38;;;1.42;;
26474;SDS011;14161;52.270;10.334;2023-04-03T06:48:08;3.40;;;1.25;;
26474;SDS011;14161;52.270;10.334;2023-04-03T06:50:34;4.07;;;1.67;;
26474;SDS011;14161;52.270;10.334;2023-04-03T06:52:59;2.67;;;1.30;;
26474;SDS011;14161;52.270;10.334;2023-04-03T06:55:26;2.22;;;1.40;;
26474;SDS011;14161;52.270;10.334;2023-04-03T06:57:51;4.07;;;1.33;;
26474;SDS011;14161;52.270;10.334;2023-04-03T07:00:20;4.35;;;1.73;;
26474;SDS011;14161;52.270;10.334;2023-04-03T07:03:04;6.10;;;1.50;;
26474;SDS011;14161;52.270;10.334;2023-04-03T07:05:29;5.32;;;1.42;;
26474;SDS011;14161;52.270;10.334;2023-04-03T07:07:55;2.95;;;1.20;;
26474;SDS011;14161;52.270;10.334;2023-04-03T07:10:21;2.95;;;1.05;;
26474;SDS011;14161;52.270;10.334;2023-04-03T07:12:46;1.95;;;0.93;;
26474;SDS011;14161;52.270;10.334;2023-04-03T07:15:12;9.98;;;3.40;;
26474;SDS011;14161;52.270;10.334;2023-04-03T07:17:38;8.45;;;4.07;;
26474;SDS011;14161;52.270;10.334;2023-04-03T07:20:04;4.55;;;2.28;;
26474;SDS011;14161;52.270;10.334;2023-04-03T07:22:30;2.78;;;1.27;;
26474;SDS011;14161;52.270;10.334;2023-04-03T07:24:56;4.38;;;1.60;;
26474;SDS011;14161;52.270;10.334;2023-04-03T07:27:21;3.50;;;1.40;;
26474;SDS011;14161;52.270;10.334;2023-04-03T07:29:47;4.50;;;1.55;;
26474;SDS011;14161;52.270;10.334;2023-04-03T07:32:13;5.05;;;1.40;;
26474;SDS011;14161;52.270;10.334;2023-04-03T07:34:40;3.60;;;1.63;;
26474;SDS011;14161;52.270;10.334;2023-04-03T07:37:05;3.75;;;1.48;;
26474;SDS011;14161;52.270;10.334;2023-04-03T07:39:31;3.58;;;1.33;;
26474;SDS011;14161;52.270;10.334;2023-04-03T07:41:57;2.85;;;1.02;;
26474;SDS011;14161;52.270;10.334;2023-04-03T07:44:23;3.13;;;0.95;;
26474;SDS011;14161;52.270;10.334;2023-04-03T07:46:49;3.30;;;1.30;;
26474;SDS011;14161;52.270;10.334;2023-04-03T07:49:15;3.30;;;1.10;;
26474;SDS011;14161;52.270;10.334;2023-04-03T07:51:43;4.40;;;1.02;;
26474;SDS011;14161;52.270;10.334;2023-04-03T07:54:09;7.43;;;1.42;;
26474;SDS011;14161;52.270;10.334;2023-04-03T07:56:34;3.70;;;1.15;;
26474;SDS011;14161;52.270;10.334;2023-04-03T07:59:00;2.78;;;1.40;;
26474;SDS011;14161;52.270;10.334;2023-04-03T08:01:25;3.95;;;0.98;;
26474;SDS011;14161;52.270;10.334;2023-04-03T08:03:51;2.95;;;1.33;;
26474;SDS011;14161;52.270;10.334;2023-04-03T08:06:17;2.63;;;0.82;;
26474;SDS011;14161;52.270;10.334;2023-04-03T08:08:42;5.68;;;0.90;;
26474;SDS011;14161;52.270;10.334;2023-04-03T08:11:12;3.17;;;1.23;;
26474;SDS011;14161;52.270;10.334;2023-04-03T08:13:37;1.63;;;0.82;;
26474;SDS011;14161;52.270;10.334;2023-04-03T08:16:12;3.10;;;0.90;;
26474;SDS011;14161;52.270;10.334;2023-04-03T08:18:40;4.05;;;0.93;;
26474;SDS011;14161;52.270;10.334;2023-04-03T08:21:06;3.28;;;1.02;;
26474;SDS011;14161;52.270;10.334;2023-04-03T08:23:33;2.03;;;0.90;;
26474;SDS011;14161;52.270;10.334;2023-04-03T08:26:06;1.00;;;0.52;;
26474;SDS011;14161;52.270;10.334;2023-04-03T08:28:32;3.83;;;1.08;;
26474;SDS011;14161;52.270;10.334;2023-04-03T08:31:01;6.13;;;1.10;;
26474;SDS011;14161;52.270;10.334;2023-04-03T08:33:28;4.25;;;1.25;;
26474;SDS011;14161;52.270;10.334;2023-04-03T08:35:53;2.60;;;0.80;;
26474;SDS011;14161;52.270;10.334;2023-04-03T08:38:19;4.57;;;0.80;;
26474;SDS011;14161;52.270;10.334;2023-04-03T08:40:44;3.40;;;0.88;;
26474;SDS011;14161;52.270;10.334;2023-04-03T08:45:46;2.90;;;1.05;;
26474;SDS011;14161;52.270;10.334;2023-04-03T08:48:19;1.95;;;0.70;;
26474;SDS011;14161;52.270;10.334;2023-04-03T08:50:48;2.38;;;0.68;;
26474;SDS011;14161;52.270;10.334;2023-04-03T08:53:17;2.55;;;0.80;;
26474;SDS011;14161;52.270;10.334;2023-04-03T08:55:48;3.47;;;1.00;;
26474;SDS011;14161;52.270;10.334;2023-04-03T08:58:21;2.40;;;1.00;;
26474;SDS011;14161;52.270;10.334;2023-04-03T09:00:52;2.22;;;0.90;;
26474;SDS011;14161;52.270;10.334;2023-04-03T09:03:30;1.98;;;0.73;;
26474;SDS011;14161;52.270;10.334;2023-04-03T09:08:28;1.42;;;0.68;;
26474;SDS011;14161;52.270;10.334;2023-04-03T09:10:58;1.83;;;0.82;;
26474;SDS011;14161;52.270;10.334;2023-04-03T09:19:33;3.10;;;0.70;;
26474;SDS011;14161;52.270;10.334;2023-04-03T09:22:13;4.13;;;1.13;;
26474;SDS011;14161;52.270;10.334;2023-04-03T09:24:50;2.13;;;1.23;;
26474;SDS011;14161;52.270;10.334;2023-04-03T09:27:21;4.28;;;1.00;;
26474;SDS011;14161;52.270;10.334;2023-04-03T09:29:47;1.42;;;0.70;;
26474;SDS011;14161;52.270;10.334;2023-04-03T09:32:22;3.05;;;0.90;;
26474;SDS011;14161;52.270;10.334;2023-04-03T09:34:55;2.80;;;0.90;;
26474;SDS011;14161;52.270;10.334;2023-04-03T09:37:33;3.13;;;0.70;;
26474;SDS011;14161;52.270;10.334;2023-04-03T09:40:01;0.98;;;0.60;;
26474;SDS011;14161;52.270;10.334;2023-04-03T09:42:29;1.65;;;0.63;;
26474;SDS011;14161;52.270;10.334;2023-04-03T09:45:00;2.70;;;0.82;;
26474;SDS011;14161;52.270;10.334;2023-04-03T09:47:29;4.38;;;1.00;;
26474;SDS011;14161;52.270;10.334;2023-04-03T09:52:45;2.83;;;0.90;;
26474;SDS011;14161;52.270;10.334;2023-04-03T09:55:19;3.38;;;1.00;;
26474;SDS011;14161;52.270;10.334;2023-04-03T09:57:59;2.78;;;1.17;;
26474;SDS011;14161;52.270;10.334;2023-04-03T10:00:26;3.67;;;0.82;;
26474;SDS011;14161;52.270;10.334;2023-04-03T10:02:55;2.30;;;0.90;;
26474;SDS011;14161;52.270;10.334;2023-04-03T10:10:35;3.33;;;1.20;;
26474;SDS011;14161;52.270;10.334;2023-04-03T10:13:05;2.92;;;1.08;;
26474;SDS011;14161;52.270;10.334;2023-04-03T10:15:35;1.65;;;0.85;;
26474;SDS011;14161;52.270;10.334;2023-04-03T10:18:08;1.85;;;0.70;;
26474;SDS011;14161;52.270;10.334;2023-04-03T10:21:11;4.50;;;1.00;;
26474;SDS011;14161;52.270;10.334;2023-04-03T10:23:46;4.22;;;1.10;;
26474;SDS011;14161;52.270;10.334;2023-04-03T10:34:31;1.90;;;0.73;;
26474;SDS011;14161;52.270;10.334;2023-04-03T10:39:39;1.35;;;0.90;;
26474;SDS011;14161;52.270;10.334;2023-04-03T10:42:55;1.23;;;0.60;;
26474;SDS011;14161;52.270;10.334;2023-04-03T10:48:40;1.02;;;0.60;;
26474;SDS011;14161;52.270;10.334;2023-04-03T10:56:52;2.15;;;0.80;;
26474;SDS011;14161;52.270;10.334;2023-04-03T11:02:16;5.32;;;0.60;;
26474;SDS011;14161;52.270;10.334;2023-04-03T11:04:51;1.27;;;0.50;;
26474;SDS011;14161;52.270;10.334;2023-04-03T11:07:23;1.40;;;0.60;;
26474;SDS011;14161;52.270;10.334;2023-04-03T11:12:24;1.40;;;0.70;;
26474;SDS011;14161;52.270;10.334;2023-04-03T11:14:51;1.13;;;0.68;;
26474;SDS011;14161;52.270;10.334;2023-04-03T11:25:27;2.92;;;0.98;;
26474;SDS011;14161;52.270;10.334;2023-04-03T11:27:59;2.47;;;1.02;;
26474;SDS011;14161;52.270;10.334;2023-04-03T11:36:24;2.17;;;0.70;;
26474;SDS011;14161;52.270;10.334;2023-04-03T11:38:56;2.63;;;0.80;;
26474;SDS011;14161;52.270;10.334;2023-04-03T11:41:25;3.50;;;1.10;;
26474;SDS011;14161;52.270;10.334;2023-04-03T11:44:03;2.45;;;0.80;;
26474;SDS011;14161;52.270;10.334;2023-04-03T12:03:29;3.35;;;0.65;;
26474;SDS011;14161;52.270;10.334;2023-04-03T12:13:42;2.10;;;0.80;;
26474;SDS011;14161;52.270;10.334;2023-04-03T12:26:50;3.13;;;1.00;;
26474;SDS011;14161;52.270;10.334;2023-04-03T12:29:32;2.35;;;1.20;;
26474;SDS011;14161;52.270;10.334;2023-04-03T12:34:59;3.00;;;1.10;;
26474;SDS011;14161;52.270;10.334;2023-04-03T12:40:40;2.03;;;0.93;;
26474;SDS011;14161;52.270;10.334;2023-04-03T12:43:55;1.48;;;0.60;;
26474;SDS011;14161;52.270;10.334;2023-04-03T12:51:15;0.98;;;0.52;;
26474;SDS011;14161;52.270;10.334;2023-04-03T12:53:43;1.30;;;0.80;;
26474;SDS011;14161;52.270;10.334;2023-04-03T12:56:18;3.03;;;0.88;;
26474;SDS011;14161;52.270;10.334;2023-04-03T12:58:53;1.73;;;1.00;;
26474;SDS011;14161;52.270;10.334;2023-04-03T13:01:23;1.08;;;0.73;;
26474;SDS011;14161;52.270;10.334;2023-04-03T13:03:52;1.50;;;0.80;;
26474;SDS011;14161;52.270;10.334;2023-04-03T13:06:21;2.97;;;0.90;;
26474;SDS011;14161;52.270;10.334;2023-04-03T13:08:56;1.80;;;1.33;;
26474;SDS011;14161;52.270;10.334;2023-04-03T13:11:23;3.92;;;1.33;;
26474;SDS011;14161;52.270;10.334;2023-04-03T13:13:57;1.63;;;1.10;;
26474;SDS011;14161;52.270;10.334;2023-04-03T13:16:42;1.60;;;0.90;;
26474;SDS011;14161;52.270;10.334;2023-04-03T13:19:38;0.95;;;0.77;;
26474;SDS011;14161;52.270;10.334;2023-04-03T13:22:05;1.90;;;0.60;;
26474;SDS011;14161;52.270;10.334;2023-04-03T13:24:34;3.28;;;0.80;;
26474;SDS011;14161;52.270;10.334;2023-04-03T13:27:02;2.63;;;1.05;;
26474;SDS011;14161;52.270;10.334;2023-04-03T13:29:32;3.63;;;1.38;;
26474;SDS011;14161;52.270;10.334;2023-04-03T13:32:00;0.95;;;0.70;;
26474;SDS011;14161;52.270;10.334;2023-04-03T13:34:45;1.55;;;0.60;;
26474;SDS011;14161;52.270;10.334;2023-04-03T13:37:19;0.77;;;0.73;;
26474;SDS011;14161;52.270;10.334;2023-04-03T13:39:55;1.80;;;1.17;;
26474;SDS011;14161;52.270;10.334;2023-04-03T13:42:34;1.73;;;0.70;;
26474;SDS011;14161;52.270;10.334;2023-04-03T13:47:52;2.20;;;1.13;;
26474;SDS011;14161;52.270;10.334;2023-04-03T13:53:41;0.90;;;0.70;;
26474;SDS011;14161;52.270;10.334;2023-04-03T13:56:19;6.40;;;2.90;;
26474;SDS011;14161;52.270;10.334;2023-04-03T13:58:56;9.32;;;5.07;;
26474;SDS011;14161;52.270;10.334;2023-04-03T14:01:24;4.70;;;2.58;;
26474;SDS011;14161;52.270;10.334;2023-04-03T14:06:21;2.95;;;1.20;;
26474;SDS011;14161;52.270;10.334;2023-04-03T14:08:47;2.90;;;1.17;;
26474;SDS011;14161;52.270;10.334;2023-04-03T14:11:15;1.15;;;0.75;;
26474;SDS011;14161;52.270;10.334;2023-04-03T14:13:42;1.50;;;0.85;;
26474;SDS011;14161;52.270;10.334;2023-04-03T14:16:12;1.63;;;1.10;;
26474;SDS011;14161;52.270;10.334;2023-04-03T14:18:39;1.15;;;0.82;;
26474;SDS011;14161;52.270;10.334;2023-04-03T14:21:05;2.35;;;1.00;;
26474;SDS011;14161;52.270;10.334;2023-04-03T14:23:32;3.10;;;1.10;;
26474;SDS011;14161;52.270;10.334;2023-04-03T14:25:58;2.67;;;0.90;;
26474;SDS011;14161;52.270;10.334;2023-04-03T14:28:25;1.67;;;0.93;;
26474;SDS011;14161;52.270;10.334;2023-04-03T14:30:51;3.70;;;1.10;;
26474;SDS011;14161;52.270;10.334;2023-04-03T14:33:19;2.83;;;0.80;;
26474;SDS011;14161;52.270;10.334;2023-04-03T14:35:46;3.17;;;1.13;;
26474;SDS011;14161;52.270;10.334;2023-04-03T14:38:19;2.20;;;1.27;;
26474;SDS011;14161;52.270;10.334;2023-04-03T14:40:49;2.28;;;1.30;;
26474;SDS011;14161;52.270;10.334;2023-04-03T14:43:15;1.77;;;0.88;;
26474;SDS011;14161;52.270;10.334;2023-04-03T14:45:41;3.10;;;0.82;;
26474;SDS011;14161;52.270;10.334;2023-04-03T14:48:10;1.38;;;0.85;;
26474;SDS011;14161;52.270;10.334;2023-04-03T14:50:47;2.67;;;1.02;;
26474;SDS011;14161;52.270;10.334;2023-04-03T14:53:14;1.48;;;1.00;;
26474;SDS011;14161;52.270;10.334;2023-04-03T14:55:40;3.30;;;1.13;;
26474;SDS011;14161;52.270;10.334;2023-04-03T14:58:09;3.28;;;1.15;;
26474;SDS011;14161;52.270;10.334;2023-04-03T15:00:38;1.67;;;0.95;;
26474;SDS011;14161;52.270;10.334;2023-04-03T15:03:03;2.97;;;1.23;;
26474;SDS011;14161;52.270;10.334;2023-04-03T15:05:29;2.25;;;1.40;;
26474;SDS011;14161;52.270;10.334;2023-04-03T15:07:55;2.97;;;1.83;;
26474;SDS011;14161;52.270;10.334;2023-04-03T15:10:26;4.40;;;1.80;;
26474;SDS011;14161;52.270;10.334;2023-04-03T15:12:53;1.77;;;1.00;;
26474;SDS011;14161;52.270;10.334;2023-04-03T15:15:19;3.63;;;1.30;;
26474;SDS011;14161;52.270;10.334;2023-04-03T15:17:46;2.35;;;1.38;;
26474;SDS011;14161;52.270;10.334;2023-04-03T15:20:14;4.80;;;1.88;;
26474;SDS011;14161;52.270;10.334;2023-04-03T15:22:41;1.42;;;0.98;;
26474;SDS011;14161;52.270;10.334;2023-04-03T15:25:06;1.88;;;1.00;;
26474;SDS011;14161;52.270;10.334;2023-04-03T15:27:32;1.70;;;0.80;;
26474;SDS011;14161;52.270;10.334;2023-04-03T15:29:58;3.92;;;1.00;;
26474;SDS011;14161;52.270;10.334;2023-04-03T15:32:23;2.35;;;1.00;;
26474;SDS011;14161;52.270;10.334;2023-04-03T15:34:49;1.80;;;0.88;;
26474;SDS011;14161;52.270;10.334;2023-04-03T15:37:15;1.20;;;0.80;;
26474;SDS011;14161;52.270;10.334;2023-04-03T15:39:40;1.90;;;1.17;;
26474;SDS011;14161;52.270;10.334;2023-04-03T15:42:06;2.80;;;0.90;;
26474;SDS011;14161;52.270;10.334;2023-04-03T15:44:32;2.03;;;1.20;;
26474;SDS011;14161;52.270;10.334;2023-04-03T15:46:59;2.85;;;1.30;;
26474;SDS011;14161;52.270;10.334;2023-04-03T15:49:25;3.58;;;1.10;;
26474;SDS011;14161;52.270;10.334;2023-04-03T15:51:51;2.28;;;1.05;;
26474;SDS011;14161;52.270;10.334;2023-04-03T15:54:16;2.15;;;1.10;;
26474;SDS011;14161;52.270;10.334;2023-04-03T15:56:42;2.33;;;1.00;;
26474;SDS011;14161;52.270;10.334;2023-04-03T15:59:07;4.88;;;1.25;;
26474;SDS011;14161;52.270;10.334;2023-04-03T16:01:33;3.45;;;1.20;;
26474;SDS011;14161;52.270;10.334;2023-04-03T16:03:59;3.30;;;1.20;;
26474;SDS011;14161;52.270;10.334;2023-04-03T16:06:24;2.25;;;0.85;;
26474;SDS011;14161;52.270;10.334;2023-04-03T16:08:50;1.75;;;1.00;;
26474;SDS011;14161;52.270;10.334;2023-04-03T16:11:16;2.30;;;0.95;;
26474;SDS011;14161;52.270;10.334;2023-04-03T16:13:41;1.52;;;0.90;;
26474;SDS011;14161;52.270;10.334;2023-04-03T16:16:07;1.52;;;0.95;;
26474;SDS011;14161;52.270;10.334;2023-04-03T16:18:33;1.58;;;0.70;;
26474;SDS011;14161;52.270;10.334;2023-04-03T16:20:59;2.35;;;1.10;;
26474;SDS011;14161;52.270;10.334;2023-04-03T16:23:24;2.30;;;0.90;;
26474;SDS011;14161;52.270;10.334;2023-04-03T16:25:50;3.85;;;0.80;;
26474;SDS011;14161;52.270;10.334;2023-04-03T16:28:16;2.05;;;0.77;;
26474;SDS011;14161;52.270;10.334;2023-04-03T16:30:42;1.50;;;0.77;;
26474;SDS011;14161;52.270;10.334;2023-04-03T16:33:09;1.58;;;0.80;;
26474;SDS011;14161;52.270;10.334;2023-04-03T16:35:35;1.02;;;0.68;;
26474;SDS011;14161;52.270;10.334;2023-04-03T16:38:01;1.08;;;0.70;;